sensor_id;sensor_type;location;lat;lon;timestamp;temperature;humidity
51837;DHT22;38941;53.254;6.600;2024-01-10T00:00:12;-3.80;99.90
51837;DHT22;38941;53.254;6.600;2024-01-10T00:02:23;-3.80;99.90
51837;DHT22;38941;53.254;6.600;2024-01-10T00:04:32;-4.20;99.90
51837;DHT22;38941;53.254;6.600;2024-01-10T00:06:36;-3.20;99.90
51837;DHT22;38941;53.254;6.600;2024-01-10T00:08:43;-2.80;99.90
51837;DHT22;38941;53.254;6.600;2024-01-10T00:11:06;-3.90;99.90
51837;DHT22;38941;53.254;6.600;2024-01-10T00:13:16;-3.90;99.90
51837;DHT22;38941;53.254;6.600;2024-01-10T00:15:24;-3.90;99.90
51837;DHT22;38941;53.254;6.600;2024-01-10T00:17:26;-3.90;99.90
51837;DHT22;38941;53.254;6.600;2024-01-10T00:19:34;-4.20;99.90
51837;DHT22;38941;53.254;6.600;2024-01-10T00:21:48;-3.90;99.90
51837;DHT22;38941;53.254;6.600;2024-01-10T00:24:17;-2.60;99.90
51837;DHT22;38941;53.254;6.600;2024-01-10T00:26:19;-4.80;99.90
51837;DHT22;38941;53.254;6.600;2024-01-10T00:28:26;-2.70;99.90
51837;DHT22;38941;53.254;6.600;2024-01-10T00:30:34;-4.00;99.90
51837;DHT22;38941;53.254;6.600;2024-01-10T00:32:45;-4.50;99.90
51837;DHT22;38941;53.254;6.600;2024-01-10T00:34:57;-4.00;99.90
51837;DHT22;38941;53.254;6.600;2024-01-10T00:36:59;-4.10;99.90
51837;DHT22;38941;53.254;6.600;2024-01-10T00:39:07;-4.00;99.90
51837;DHT22;38941;53.254;6.600;2024-01-10T00:41:23;-4.00;99.90
51837;DHT22;38941;53.254;6.600;2024-01-10T00:43:25;-3.90;99.90
51837;DHT22;38941;53.254;6.600;2024-01-10T00:45:48;-4.20;99.90
51837;DHT22;38941;53.254;6.600;2024-01-10T00:50:35;-4.10;99.90
51837;DHT22;38941;53.254;6.600;2024-01-10T00:52:40;-3.50;99.90
51837;DHT22;38941;53.254;6.600;2024-01-10T00:54:55;-3.30;99.90
51837;DHT22;38941;53.254;6.600;2024-01-10T00:57:05;-4.80;99.90
51837;DHT22;38941;53.254;6.600;2024-01-10T00:59:14;-4.20;99.90
51837;DHT22;38941;53.254;6.600;2024-01-10T01:01:39;-4.10;99.90
51837;DHT22;38941;53.254;6.600;2024-01-10T01:03:48;-4.10;99.90
51837;DHT22;38941;53.254;6.600;2024-01-10T01:05:57;-4.20;99.90
51837;DHT22;38941;53.254;6.600;2024-01-10T01:08:10;-5.00;99.90
51837;DHT22;38941;53.254;6.600;2024-01-10T01:10:14;-4.20;99.90
51837;DHT22;38941;53.254;6.600;2024-01-10T01:12:20;-4.80;99.90
51837;DHT22;38941;53.254;6.600;2024-01-10T01:14:39;-3.40;99.90
51837;DHT22;38941;53.254;6.600;2024-01-10T01:16:42;-3.40;99.90
51837;DHT22;38941;53.254;6.600;2024-01-10T01:18:56;-3.00;99.90
51837;DHT22;38941;53.254;6.600;2024-01-10T01:20:58;-4.10;99.90
51837;DHT22;38941;53.254;6.600;2024-01-10T01:23:05;-3.50;99.90
51837;DHT22;38941;53.254;6.600;2024-01-10T01:25:08;-3.40;99.90
51837;DHT22;38941;53.254;6.600;2024-01-10T01:27:10;-3.00;99.90
51837;DHT22;38941;53.254;6.600;2024-01-10T01:29:13;-2.90;99.90
51837;DHT22;38941;53.254;6.600;2024-01-10T01:31:19;-4.30;99.90
51837;DHT22;38941;53.254;6.600;2024-01-10T01:33:22;-4.20;99.90
51837;DHT22;38941;53.254;6.600;2024-01-10T01:35:31;-4.20;99.90
51837;DHT22;38941;53.254;6.600;2024-01-10T01:37:43;-3.50;99.90
51837;DHT22;38941;53.254;6.600;2024-01-10T01:39:57;-2.90;99.90
51837;DHT22;38941;53.254;6.600;2024-01-10T01:41:58;-3.00;99.90
51837;DHT22;38941;53.254;6.600;2024-01-10T01:44:01;-5.20;99.90
51837;DHT22;38941;53.254;6.600;2024-01-10T01:46:11;-3.60;99.90
51837;DHT22;38941;53.254;6.600;2024-01-10T01:48:16;-4.20;99.90
51837;DHT22;38941;53.254;6.600;2024-01-10T01:50:26;-5.30;99.90
51837;DHT22;38941;53.254;6.600;2024-01-10T01:52:41;-4.60;99.90
51837;DHT22;38941;53.254;6.600;2024-01-10T01:54:47;-3.30;99.90
51837;DHT22;38941;53.254;6.600;2024-01-10T01:56:50;-3.60;99.90
51837;DHT22;38941;53.254;6.600;2024-01-10T01:59:08;-5.00;99.90
51837;DHT22;38941;53.254;6.600;2024-01-10T02:01:18;-2.70;99.90
51837;DHT22;38941;53.254;6.600;2024-01-10T02:03:28;-3.80;99.90
51837;DHT22;38941;53.254;6.600;2024-01-10T02:05:31;-3.20;99.90
51837;DHT22;38941;53.254;6.600;2024-01-10T02:07:39;-4.20;99.90
51837;DHT22;38941;53.254;6.600;2024-01-10T02:09:52;-4.20;99.90
51837;DHT22;38941;53.254;6.600;2024-01-10T02:12:00;-4.30;99.90
51837;DHT22;38941;53.254;6.600;2024-01-10T02:14:24;-3.00;99.90
51837;DHT22;38941;53.254;6.600;2024-01-10T02:16:52;-4.20;99.90
51837;DHT22;38941;53.254;6.600;2024-01-10T02:19:25;-4.20;99.90
51837;DHT22;38941;53.254;6.600;2024-01-10T02:21:36;-3.60;99.90
51837;DHT22;38941;53.254;6.600;2024-01-10T02:23:44;-4.20;99.90
51837;DHT22;38941;53.254;6.600;2024-01-10T02:25:52;-4.20;99.90
51837;DHT22;38941;53.254;6.600;2024-01-10T02:27:58;-4.30;99.90
51837;DHT22;38941;53.254;6.600;2024-01-10T02:30:25;-3.30;99.90
51837;DHT22;38941;53.254;6.600;2024-01-10T02:32:32;-4.10;99.90
51837;DHT22;38941;53.254;6.600;2024-01-10T02:34:42;-3.70;99.90
51837;DHT22;38941;53.254;6.600;2024-01-10T02:36:49;-4.20;99.90
51837;DHT22;38941;53.254;6.600;2024-01-10T02:38:52;-4.00;99.90
51837;DHT22;38941;53.254;6.600;2024-01-10T02:41:01;-4.30;99.90
51837;DHT22;38941;53.254;6.600;2024-01-10T02:43:17;-4.20;99.90
51837;DHT22;38941;53.254;6.600;2024-01-10T02:45:20;-4.30;99.90
51837;DHT22;38941;53.254;6.600;2024-01-10T02:47:32;-4.10;99.90
51837;DHT22;38941;53.254;6.600;2024-01-10T02:49:36;-4.90;99.90
51837;DHT22;38941;53.254;6.600;2024-01-10T02:56:18;-4.20;99.90
51837;DHT22;38941;53.254;6.600;2024-01-10T03:01:13;-3.50;99.90
51837;DHT22;38941;53.254;6.600;2024-01-10T03:05:23;-4.30;99.90
51837;DHT22;38941;53.254;6.600;2024-01-10T03:07:32;-4.10;99.90
51837;DHT22;38941;53.254;6.600;2024-01-10T03:09:47;-3.30;99.90
51837;DHT22;38941;53.254;6.600;2024-01-10T03:11:49;-5.50;99.90
51837;DHT22;38941;53.254;6.600;2024-01-10T03:14:13;-4.40;99.90
51837;DHT22;38941;53.254;6.600;2024-01-10T03:16:21;-5.40;99.90
51837;DHT22;38941;53.254;6.600;2024-01-10T03:18:42;-4.40;99.90
51837;DHT22;38941;53.254;6.600;2024-01-10T03:20:44;-4.90;99.90
51837;DHT22;38941;53.254;6.600;2024-01-10T03:22:54;-3.50;99.90
51837;DHT22;38941;53.254;6.600;2024-01-10T03:24:55;-4.30;99.90
51837;DHT22;38941;53.254;6.600;2024-01-10T03:26:57;-4.50;99.90
51837;DHT22;38941;53.254;6.600;2024-01-10T03:31:54;-5.50;99.90
51837;DHT22;38941;53.254;6.600;2024-01-10T03:33:56;-4.50;99.90
51837;DHT22;38941;53.254;6.600;2024-01-10T03:35:57;-3.50;99.90
51837;DHT22;38941;53.254;6.600;2024-01-10T03:38:06;-4.80;99.90
51837;DHT22;38941;53.254;6.600;2024-01-10T03:40:18;-3.90;99.90
51837;DHT22;38941;53.254;6.600;2024-01-10T03:42:37;-4.50;99.90
51837;DHT22;38941;53.254;6.600;2024-01-10T03:44:40;-4.60;99.90
51837;DHT22;38941;53.254;6.600;2024-01-10T03:46:44;-4.60;99.90
51837;DHT22;38941;53.254;6.600;2024-01-10T03:49:07;-4.60;99.90
51837;DHT22;38941;53.254;6.600;2024-01-10T03:51:20;-5.20;99.90
51837;DHT22;38941;53.254;6.600;2024-01-10T03:53:23;-4.00;99.90
51837;DHT22;38941;53.254;6.600;2024-01-10T03:55:30;-3.50;99.90
51837;DHT22;38941;53.254;6.600;2024-01-10T03:57:32;-4.10;99.90
51837;DHT22;38941;53.254;6.600;2024-01-10T03:59:35;-4.70;99.90
51837;DHT22;38941;53.254;6.600;2024-01-10T04:01:37;-4.70;99.90
51837;DHT22;38941;53.254;6.600;2024-01-10T04:03:45;-4.70;99.90
51837;DHT22;38941;53.254;6.600;2024-01-10T04:06:05;-4.70;99.90
51837;DHT22;38941;53.254;6.600;2024-01-10T04:08:20;-4.70;99.90
51837;DHT22;38941;53.254;6.600;2024-01-10T04:10:22;-3.90;99.90
51837;DHT22;38941;53.254;6.600;2024-01-10T04:12:35;-5.90;99.90
51837;DHT22;38941;53.254;6.600;2024-01-10T04:14:37;-4.50;99.90
51837;DHT22;38941;53.254;6.600;2024-01-10T04:16:40;-4.40;99.90
51837;DHT22;38941;53.254;6.600;2024-01-10T04:19:06;-4.80;99.90
51837;DHT22;38941;53.254;6.600;2024-01-10T04:21:15;-4.70;99.90
51837;DHT22;38941;53.254;6.600;2024-01-10T04:23:24;-4.20;99.90
51837;DHT22;38941;53.254;6.600;2024-01-10T04:25:28;-4.60;99.90
51837;DHT22;38941;53.254;6.600;2024-01-10T04:27:31;-4.30;99.90
51837;DHT22;38941;53.254;6.600;2024-01-10T04:29:38;-4.70;99.90
51837;DHT22;38941;53.254;6.600;2024-01-10T04:31:49;-3.90;99.90
51837;DHT22;38941;53.254;6.600;2024-01-10T04:34:02;-4.80;99.90
51837;DHT22;38941;53.254;6.600;2024-01-10T04:36:03;-4.70;99.90
51837;DHT22;38941;53.254;6.600;2024-01-10T04:38:06;-4.10;99.90
51837;DHT22;38941;53.254;6.600;2024-01-10T04:40:09;-3.40;99.90
51837;DHT22;38941;53.254;6.600;2024-01-10T04:42:44;-5.70;99.90
51837;DHT22;38941;53.254;6.600;2024-01-10T04:44:47;-5.40;99.90
51837;DHT22;38941;53.254;6.600;2024-01-10T04:47:05;-4.90;99.90
51837;DHT22;38941;53.254;6.600;2024-01-10T04:49:18;-4.80;99.90
51837;DHT22;38941;53.254;6.600;2024-01-10T04:51:26;-4.50;99.90
51837;DHT22;38941;53.254;6.600;2024-01-10T04:53:45;-5.30;99.90
51837;DHT22;38941;53.254;6.600;2024-01-10T04:55:53;-3.90;99.90
51837;DHT22;38941;53.254;6.600;2024-01-10T04:57:54;-4.30;99.90
51837;DHT22;38941;53.254;6.600;2024-01-10T05:00:02;-4.50;99.90
51837;DHT22;38941;53.254;6.600;2024-01-10T05:02:06;-4.80;99.90
51837;DHT22;38941;53.254;6.600;2024-01-10T05:04:40;-4.20;99.90
51837;DHT22;38941;53.254;6.600;2024-01-10T05:06:47;-4.90;99.90
51837;DHT22;38941;53.254;6.600;2024-01-10T05:08:56;-4.80;99.90
51837;DHT22;38941;53.254;6.600;2024-01-10T05:11:04;-5.90;99.90
51837;DHT22;38941;53.254;6.600;2024-01-10T05:13:13;-4.70;99.90
51837;DHT22;38941;53.254;6.600;2024-01-10T05:15:24;-4.80;99.90
51837;DHT22;38941;53.254;6.600;2024-01-10T05:17:48;-4.70;99.90
51837;DHT22;38941;53.254;6.600;2024-01-10T05:20:14;-5.00;99.90
51837;DHT22;38941;53.254;6.600;2024-01-10T05:22:40;-5.00;99.90
51837;DHT22;38941;53.254;6.600;2024-01-10T05:24:51;-5.10;99.90
51837;DHT22;38941;53.254;6.600;2024-01-10T05:27:02;-3.70;99.90
51837;DHT22;38941;53.254;6.600;2024-01-10T05:29:15;-5.10;99.90
51837;DHT22;38941;53.254;6.600;2024-01-10T05:31:17;-5.70;99.90
51837;DHT22;38941;53.254;6.600;2024-01-10T05:33:24;-4.10;99.90
51837;DHT22;38941;53.254;6.600;2024-01-10T05:35:25;-5.00;99.90
51837;DHT22;38941;53.254;6.600;2024-01-10T05:37:59;-3.80;99.90
51837;DHT22;38941;53.254;6.600;2024-01-10T05:40:07;-5.00;99.90
51837;DHT22;38941;53.254;6.600;2024-01-10T05:42:09;-5.10;99.90
51837;DHT22;38941;53.254;6.600;2024-01-10T05:44:12;-5.00;99.90
51837;DHT22;38941;53.254;6.600;2024-01-10T05:46:21;-6.20;99.90
51837;DHT22;38941;53.254;6.600;2024-01-10T05:48:29;-4.80;99.90
51837;DHT22;38941;53.254;6.600;2024-01-10T05:50:49;-4.40;99.90
51837;DHT22;38941;53.254;6.600;2024-01-10T05:53:05;-5.10;99.90
51837;DHT22;38941;53.254;6.600;2024-01-10T05:55:18;-5.00;99.90
51837;DHT22;38941;53.254;6.600;2024-01-10T05:57:21;-4.00;99.90
51837;DHT22;38941;53.254;6.600;2024-01-10T05:59:39;-4.90;99.90
51837;DHT22;38941;53.254;6.600;2024-01-10T06:02:03;-5.90;99.90
51837;DHT22;38941;53.254;6.600;2024-01-10T06:04:12;-6.00;99.90
51837;DHT22;38941;53.254;6.600;2024-01-10T06:06:17;-4.40;99.90
51837;DHT22;38941;53.254;6.600;2024-01-10T06:08:25;-3.80;99.90
51837;DHT22;38941;53.254;6.600;2024-01-10T06:10:46;-4.90;99.90
51837;DHT22;38941;53.254;6.600;2024-01-10T06:13:02;-4.20;99.90
51837;DHT22;38941;53.254;6.600;2024-01-10T06:15:07;-4.60;99.90
51837;DHT22;38941;53.254;6.600;2024-01-10T06:17:24;-4.80;99.90
51837;DHT22;38941;53.254;6.600;2024-01-10T06:19:33;-4.90;99.90
51837;DHT22;38941;53.254;6.600;2024-01-10T06:21:38;-5.90;99.90
51837;DHT22;38941;53.254;6.600;2024-01-10T06:23:49;-4.90;99.90
51837;DHT22;38941;53.254;6.600;2024-01-10T06:25:55;-4.90;99.90
51837;DHT22;38941;53.254;6.600;2024-01-10T06:28:06;-4.90;99.90
51837;DHT22;38941;53.254;6.600;2024-01-10T06:30:16;-5.20;99.90
51837;DHT22;38941;53.254;6.600;2024-01-10T06:32:21;-5.90;99.90
51837;DHT22;38941;53.254;6.600;2024-01-10T06:34:23;-4.20;99.90
51837;DHT22;38941;53.254;6.600;2024-01-10T06:36:43;-4.10;99.90
51837;DHT22;38941;53.254;6.600;2024-01-10T06:39:09;-5.00;99.90
51837;DHT22;38941;53.254;6.600;2024-01-10T06:41:28;-5.50;99.90
51837;DHT22;38941;53.254;6.600;2024-01-10T06:46:06;-5.00;99.90
51837;DHT22;38941;53.254;6.600;2024-01-10T06:48:09;-4.20;99.90
51837;DHT22;38941;53.254;6.600;2024-01-10T06:50:11;-3.50;99.90
51837;DHT22;38941;53.254;6.600;2024-01-10T06:52:19;-5.40;99.90
51837;DHT22;38941;53.254;6.600;2024-01-10T06:57:41;-5.20;99.90
51837;DHT22;38941;53.254;6.600;2024-01-10T06:59:45;-4.80;99.90
51837;DHT22;38941;53.254;6.600;2024-01-10T07:02:11;-4.90;99.90
51837;DHT22;38941;53.254;6.600;2024-01-10T07:04:27;-5.30;99.90
51837;DHT22;38941;53.254;6.600;2024-01-10T07:09:01;-5.40;99.90
51837;DHT22;38941;53.254;6.600;2024-01-10T07:11:12;-4.00;99.90
51837;DHT22;38941;53.254;6.600;2024-01-10T07:13:41;-4.40;99.90
51837;DHT22;38941;53.254;6.600;2024-01-10T07:15:45;-5.60;99.90
51837;DHT22;38941;53.254;6.600;2024-01-10T07:18:05;-4.00;99.90
51837;DHT22;38941;53.254;6.600;2024-01-10T07:20:07;-3.70;99.90
51837;DHT22;38941;53.254;6.600;2024-01-10T07:22:16;-5.80;99.90
51837;DHT22;38941;53.254;6.600;2024-01-10T07:24:19;-4.30;99.90
51837;DHT22;38941;53.254;6.600;2024-01-10T07:26:20;-4.40;99.90
51837;DHT22;38941;53.254;6.600;2024-01-10T07:28:24;-3.90;99.90
51837;DHT22;38941;53.254;6.600;2024-01-10T07:30:26;-3.80;99.90
51837;DHT22;38941;53.254;6.600;2024-01-10T07:32:28;-4.70;99.90
51837;DHT22;38941;53.254;6.600;2024-01-10T07:34:33;-4.70;99.90
51837;DHT22;38941;53.254;6.600;2024-01-10T07:36:44;-5.80;99.90
51837;DHT22;38941;53.254;6.600;2024-01-10T07:38:53;-4.90;99.90
51837;DHT22;38941;53.254;6.600;2024-01-10T07:41:17;-6.00;99.90
51837;DHT22;38941;53.254;6.600;2024-01-10T07:45:28;-4.90;99.90
51837;DHT22;38941;53.254;6.600;2024-01-10T07:47:37;-4.30;99.90
51837;DHT22;38941;53.254;6.600;2024-01-10T07:49:47;-4.90;99.90
51837;DHT22;38941;53.254;6.600;2024-01-10T07:51:54;-4.90;99.90
51837;DHT22;38941;53.254;6.600;2024-01-10T07:54:08;-4.20;99.90
51837;DHT22;38941;53.254;6.600;2024-01-10T07:56:20;-4.90;99.90
51837;DHT22;38941;53.254;6.600;2024-01-10T07:58:36;-5.80;99.90
51837;DHT22;38941;53.254;6.600;2024-01-10T08:00:37;-4.90;99.90
51837;DHT22;38941;53.254;6.600;2024-01-10T08:02:46;-5.00;99.90
51837;DHT22;38941;53.254;6.600;2024-01-10T08:04:52;-4.90;99.90
51837;DHT22;38941;53.254;6.600;2024-01-10T08:07:00;-5.80;99.90
51837;DHT22;38941;53.254;6.600;2024-01-10T08:09:12;-4.20;99.90
51837;DHT22;38941;53.254;6.600;2024-01-10T08:11:26;-4.10;99.90
51837;DHT22;38941;53.254;6.600;2024-01-10T08:13:33;-5.30;99.90
51837;DHT22;38941;53.254;6.600;2024-01-10T08:18:19;-4.80;99.90
51837;DHT22;38941;53.254;6.600;2024-01-10T08:20:30;-4.80;99.90
51837;DHT22;38941;53.254;6.600;2024-01-10T08:22:33;-3.60;99.90
51837;DHT22;38941;53.254;6.600;2024-01-10T08:24:35;-4.00;99.90
51837;DHT22;38941;53.254;6.600;2024-01-10T08:26:40;-4.50;99.90
51837;DHT22;38941;53.254;6.600;2024-01-10T08:28:49;-4.80;99.90
51837;DHT22;38941;53.254;6.600;2024-01-10T08:30:57;-4.60;99.90
51837;DHT22;38941;53.254;6.600;2024-01-10T08:33:27;-4.10;99.90
51837;DHT22;38941;53.254;6.600;2024-01-10T08:35:56;-4.30;99.90
51837;DHT22;38941;53.254;6.600;2024-01-10T08:38:03;-4.60;99.90
51837;DHT22;38941;53.254;6.600;2024-01-10T08:40:44;-3.20;99.90
51837;DHT22;38941;53.254;6.600;2024-01-10T08:42:56;-4.90;99.90
51837;DHT22;38941;53.254;6.600;2024-01-10T08:45:20;-4.30;99.90
51837;DHT22;38941;53.254;6.600;2024-01-10T08:47:30;-4.40;99.90
51837;DHT22;38941;53.254;6.600;2024-01-10T08:49:46;-3.50;99.90
51837;DHT22;38941;53.254;6.600;2024-01-10T08:51:57;-3.80;99.90
51837;DHT22;38941;53.254;6.600;2024-01-10T08:54:00;-4.60;99.90
51837;DHT22;38941;53.254;6.600;2024-01-10T08:56:30;-3.40;99.90
51837;DHT22;38941;53.254;6.600;2024-01-10T08:58:40;-3.10;99.90
51837;DHT22;38941;53.254;6.600;2024-01-10T09:00:44;-3.00;99.90
51837;DHT22;38941;53.254;6.600;2024-01-10T09:03:04;-1.90;99.90
51837;DHT22;38941;53.254;6.600;2024-01-10T09:05:07;-2.60;99.90
51837;DHT22;38941;53.254;6.600;2024-01-10T09:07:26;-2.20;99.90
51837;DHT22;38941;53.254;6.600;2024-01-10T09:09:31;-1.80;99.90
51837;DHT22;38941;53.254;6.600;2024-01-10T09:11:33;-0.80;99.90
51837;DHT22;38941;53.254;6.600;2024-01-10T09:13:33;0.90;99.90
51837;DHT22;38941;53.254;6.600;2024-01-10T09:15:36;0.40;99.90
51837;DHT22;38941;53.254;6.600;2024-01-10T09:17:36;1.10;99.90
51837;DHT22;38941;53.254;6.600;2024-01-10T09:19:39;1.50;99.90
51837;DHT22;38941;53.254;6.600;2024-01-10T09:21:41;3.40;99.90
51837;DHT22;38941;53.254;6.600;2024-01-10T09:23:41;3.00;99.90
51837;DHT22;38941;53.254;6.600;2024-01-10T09:25:42;4.30;99.90
51837;DHT22;38941;53.254;6.600;2024-01-10T09:27:43;5.00;99.90
51837;DHT22;38941;53.254;6.600;2024-01-10T09:29:45;6.20;99.90
51837;DHT22;38941;53.254;6.600;2024-01-10T09:31:46;6.20;99.90
51837;DHT22;38941;53.254;6.600;2024-01-10T09:33:46;6.30;99.90
51837;DHT22;38941;53.254;6.600;2024-01-10T09:35:47;7.60;99.90
51837;DHT22;38941;53.254;6.600;2024-01-10T09:37:48;7.10;99.90
51837;DHT22;38941;53.254;6.600;2024-01-10T09:39:50;6.80;99.90
51837;DHT22;38941;53.254;6.600;2024-01-10T09:41:51;7.70;99.90
51837;DHT22;38941;53.254;6.600;2024-01-10T09:43:52;7.50;99.90
51837;DHT22;38941;53.254;6.600;2024-01-10T09:45:54;8.30;99.90
51837;DHT22;38941;53.254;6.600;2024-01-10T09:50:00;7.70;99.90
51837;DHT22;38941;53.254;6.600;2024-01-10T09:52:04;7.90;99.90
51837;DHT22;38941;53.254;6.600;2024-01-10T09:54:05;7.80;99.90
51837;DHT22;38941;53.254;6.600;2024-01-10T09:56:06;8.10;99.90
51837;DHT22;38941;53.254;6.600;2024-01-10T09:58:09;7.60;99.90
51837;DHT22;38941;53.254;6.600;2024-01-10T10:00:11;8.10;99.90
51837;DHT22;38941;53.254;6.600;2024-01-10T10:02:12;6.50;99.90
51837;DHT22;38941;53.254;6.600;2024-01-10T10:04:14;7.10;99.90
51837;DHT22;38941;53.254;6.600;2024-01-10T10:06:18;7.00;99.90
51837;DHT22;38941;53.254;6.600;2024-01-10T10:08:19;7.80;99.90
51837;DHT22;38941;53.254;6.600;2024-01-10T10:10:29;7.40;99.90
51837;DHT22;38941;53.254;6.600;2024-01-10T10:12:53;6.00;99.90
51837;DHT22;38941;53.254;6.600;2024-01-10T10:14:54;5.60;99.90
51837;DHT22;38941;53.254;6.600;2024-01-10T10:16:55;5.20;99.90
51837;DHT22;38941;53.254;6.600;2024-01-10T10:18:56;6.20;99.90
51837;DHT22;38941;53.254;6.600;2024-01-10T10:21:25;5.50;99.90
51837;DHT22;38941;53.254;6.600;2024-01-10T10:23:26;4.80;99.90
51837;DHT22;38941;53.254;6.600;2024-01-10T10:25:29;4.60;99.90
51837;DHT22;38941;53.254;6.600;2024-01-10T10:27:32;4.60;99.90
51837;DHT22;38941;53.254;6.600;2024-01-10T10:29:32;4.60;99.90
51837;DHT22;38941;53.254;6.600;2024-01-10T10:31:33;4.40;99.90
51837;DHT22;38941;53.254;6.600;2024-01-10T10:33:34;4.40;99.90
51837;DHT22;38941;53.254;6.600;2024-01-10T10:35:34;4.30;99.90
51837;DHT22;38941;53.254;6.600;2024-01-10T10:37:35;4.40;99.90
51837;DHT22;38941;53.254;6.600;2024-01-10T10:39:36;4.50;99.90
51837;DHT22;38941;53.254;6.600;2024-01-10T10:41:38;5.30;99.90
51837;DHT22;38941;53.254;6.600;2024-01-10T10:43:41;4.80;99.90
51837;DHT22;38941;53.254;6.600;2024-01-10T10:45:48;4.90;99.90
51837;DHT22;38941;53.254;6.600;2024-01-10T10:47:50;5.70;99.90
51837;DHT22;38941;53.254;6.600;2024-01-10T10:49:53;5.70;99.90
51837;DHT22;38941;53.254;6.600;2024-01-10T10:51:58;4.70;99.90
51837;DHT22;38941;53.254;6.600;2024-01-10T10:53:59;5.60;99.90
51837;DHT22;38941;53.254;6.600;2024-01-10T10:56:03;4.80;99.90
51837;DHT22;38941;53.254;6.600;2024-01-10T10:58:05;4.90;99.90
51837;DHT22;38941;53.254;6.600;2024-01-10T11:00:07;5.40;99.90
51837;DHT22;38941;53.254;6.600;2024-01-10T11:02:09;5.00;99.90
51837;DHT22;38941;53.254;6.600;2024-01-10T11:04:12;5.00;99.90
51837;DHT22;38941;53.254;6.600;2024-01-10T11:06:14;5.00;99.90
51837;DHT22;38941;53.254;6.600;2024-01-10T11:08:17;5.00;99.90
51837;DHT22;38941;53.254;6.600;2024-01-10T11:10:31;4.70;99.90
51837;DHT22;38941;53.254;6.600;2024-01-10T11:17:14;5.00;99.90
51837;DHT22;38941;53.254;6.600;2024-01-10T11:29:55;5.10;99.90
51837;DHT22;38941;53.254;6.600;2024-01-10T11:31:58;5.20;99.90
51837;DHT22;38941;53.254;6.600;2024-01-10T11:34:02;5.00;99.90
51837;DHT22;38941;53.254;6.600;2024-01-10T11:36:18;4.90;99.90
51837;DHT22;38941;53.254;6.600;2024-01-10T11:38:20;4.80;99.90
51837;DHT22;38941;53.254;6.600;2024-01-10T11:40:45;4.90;99.90
51837;DHT22;38941;53.254;6.600;2024-01-10T11:42:47;5.00;99.90
51837;DHT22;38941;53.254;6.600;2024-01-10T11:44:49;5.00;99.90
51837;DHT22;38941;53.254;6.600;2024-01-10T11:46:53;5.00;99.90
51837;DHT22;38941;53.254;6.600;2024-01-10T11:48:55;5.00;99.90
51837;DHT22;38941;53.254;6.600;2024-01-10T11:50:58;5.10;99.90
51837;DHT22;38941;53.254;6.600;2024-01-10T11:52:59;5.20;99.90
51837;DHT22;38941;53.254;6.600;2024-01-10T11:55:00;5.10;99.90
51837;DHT22;38941;53.254;6.600;2024-01-10T11:57:01;5.10;99.90
51837;DHT22;38941;53.254;6.600;2024-01-10T11:59:03;5.10;99.90
51837;DHT22;38941;53.254;6.600;2024-01-10T12:01:04;5.10;99.90
51837;DHT22;38941;53.254;6.600;2024-01-10T12:23:22;5.00;99.90
51837;DHT22;38941;53.254;6.600;2024-01-10T12:25:22;5.90;98.20
51837;DHT22;38941;53.254;6.600;2024-01-10T12:27:23;6.80;97.80
51837;DHT22;38941;53.254;6.600;2024-01-10T12:29:25;6.10;98.50
51837;DHT22;38941;53.254;6.600;2024-01-10T12:31:27;6.30;98.10
51837;DHT22;38941;53.254;6.600;2024-01-10T12:33:28;6.40;96.90
51837;DHT22;38941;53.254;6.600;2024-01-10T12:35:29;6.30;96.60
51837;DHT22;38941;53.254;6.600;2024-01-10T12:37:30;6.30;96.10
51837;DHT22;38941;53.254;6.600;2024-01-10T12:39:31;6.40;96.00
51837;DHT22;38941;53.254;6.600;2024-01-10T13:42:15;6.70;96.50
51837;DHT22;38941;53.254;6.600;2024-01-10T13:48:18;8.50;91.50
51837;DHT22;38941;53.254;6.600;2024-01-10T14:50:56;8.70;91.10
51837;DHT22;38941;53.254;6.600;2024-01-10T14:52:57;10.70;70.10
51837;DHT22;38941;53.254;6.600;2024-01-10T23:06:29;10.20;72.00
